Archival Weather

John F Kennedy Intl

New York, New York (KJFK)

Report from: Friday, February 23, 2024 2:51 PM EST
Current time: Wednesday, April 24, 2024 3:23 PM EDT

Current weather – Weather history – Daily summaries
Weather forecast

Temperature7.2°C (45.0°F)
Wind chill4.0°C (39.2°F)
Dew point3.9°C (39.0°F)
Winds 10 kts (5.1 m/s, 11.5 mph) North-Northeast (20°)
Visibility10 mi. (16.1 km)
Clouds Few clouds 1,800 ft. (549 m)
Ceiling: Overcast 3,400 ft. (1,036 m)
Altimeter29.45 in.Hg (997 mB)
Relative humidity80 %
Density altitude-270 ft. (-82 m)
Sea-level pressure99.7 kPa (997 mB, 29.45 in.Hg)
Remarks Automated weather observing station with precipitation discriminator
Flight conditions Visual Meteorological Conditions
Raw dataKJFK 231951Z 02010KT 10SM FEW018 OVC034 07/04 A2945 RMK AO2 SLP972 T00720039
An error has occurred. This application may no longer respond until reloaded. Reload 🗙